Time,TemperatureF,DewpointF,PressureIn,WindDirection,WindDirectionDegrees,WindSpeedMPH,WindSpeedGustMPH,Humidity,HourlyPrecipIn,Conditions,Clouds,dailyrainin,SoftwareType,DateUTC
2013-06-12 00:00:00,43.3,28.3,-100.00,WSW,242,0.0,0.0,55,0.00,,,0.00,VWS V14.01,2013-06-12 07:00:00,
2013-06-12 00:02:00,43.2,28.5,-100.00,WSW,242,0.0,0.0,56,0.00,,,0.00,VWS V14.01,2013-06-12 07:02:00,
2013-06-12 00:07:00,42.8,27.8,-100.00,WSW,242,0.0,0.0,55,0.00,,,0.00,VWS V14.01,2013-06-12 07:07:00,
2013-06-12 00:12:00,42.3,27.7,-100.00,WSW,242,0.0,0.0,56,0.00,,,0.00,VWS V14.01,2013-06-12 07:12:00,
2013-06-12 00:17:00,42.3,27.7,-100.00,WSW,242,0.0,0.0,56,0.00,,,0.00,VWS V14.01,2013-06-12 07:17:00,
2013-06-12 00:22:00,42.1,28.0,-100.00,WSW,242,0.0,0.0,57,0.00,,,0.00,VWS V14.01,2013-06-12 07:22:00,
2013-06-12 00:27:00,41.7,28.0,-100.00,WSW,242,0.0,0.0,58,0.00,,,0.00,VWS V14.01,2013-06-12 07:27:00,
2013-06-12 00:32:00,41.5,27.9,-100.00,WSW,242,0.0,0.0,58,0.00,,,0.00,VWS V14.01,2013-06-12 07:32:00,
2013-06-12 00:37:00,41.5,28.3,-100.00,WSW,242,0.0,0.0,59,0.00,,,0.00,VWS V14.01,2013-06-12 07:37:00,
2013-06-12 00:42:00,41.5,28.3,-100.00,WSW,242,0.0,0.0,59,0.00,,,0.00,VWS V14.01,2013-06-12 07:42:00,
2013-06-12 00:47:00,41.5,28.3,-100.00,WSW,242,0.0,0.0,59,0.00,,,0.00,VWS V14.01,2013-06-12 07:47:00,
2013-06-12 00:52:00,41.4,28.1,-100.00,WSW,242,0.0,0.0,59,0.00,,,0.00,VWS V14.01,2013-06-12 07:52:00,
2013-06-12 00:57:00,41.4,28.1,-100.00,WSW,242,0.0,0.0,59,0.00,,,0.00,VWS V14.01,2013-06-12 07:57:00,
2013-06-12 01:00:00,41.4,28.1,-100.00,WSW,242,0.0,0.0,59,0.00,,,0.00,VWS V14.01,2013-06-12 08:00:00,
2013-06-12 01:02:00,41.4,28.9,-100.00,WSW,242,0.0,0.0,61,0.00,,,0.00,VWS V14.01,2013-06-12 08:02:00,
2013-06-12 01:07:00,41.4,28.9,-100.00,WSW,242,0.0,0.0,61,0.00,,,0.00,VWS V14.01,2013-06-12 08:07:00,
2013-06-12 01:12:00,41.2,29.2,-100.00,WSW,242,0.0,0.0,62,0.00,,,0.00,VWS V14.01,2013-06-12 08:12:00,
2013-06-12 01:17:00,41.0,29.8,-100.00,WSW,242,0.0,0.0,64,0.00,,,0.00,VWS V14.01,2013-06-12 08:17:00,
2013-06-12 01:22:00,41.0,30.9,-100.00,WSW,242,0.0,0.0,67,0.00,,,0.00,VWS V14.01,2013-06-12 08:22:00,
2013-06-12 01:27:00,40.8,30.4,-100.00,WSW,242,0.0,0.0,66,0.00,,,0.00,VWS V14.01,2013-06-12 08:27:00,
2013-06-12 01:32:00,40.8,30.0,-100.00,WSW,242,0.0,0.0,65,0.00,,,0.00,VWS V14.01,2013-06-12 08:32:00,
2013-06-12 01:37:00,40.6,30.2,-100.00,WSW,242,0.0,0.0,66,0.00,,,0.00,VWS V14.01,2013-06-12 08:37:00,
2013-06-12 01:42:00,40.6,30.5,-100.00,WSW,242,0.0,0.0,67,0.00,,,0.00,VWS V14.01,2013-06-12 08:42:00,
2013-06-12 01:47:00,40.5,30.4,-100.00,WSW,242,0.0,0.0,67,0.00,,,0.00,VWS V14.01,2013-06-12 08:47:00,
2013-06-12 01:52:00,40.3,30.2,-100.00,WSW,242,0.0,0.0,67,0.00,,,0.00,VWS V14.01,2013-06-12 08:52:00,
2013-06-12 01:57:00,40.3,30.6,-100.00,WSW,242,0.0,0.0,68,0.00,,,0.00,VWS V14.01,2013-06-12 08:57:00,
2013-06-12 02:00:00,39.9,30.2,-100.00,WSW,242,0.0,0.0,68,0.00,,,0.00,VWS V14.01,2013-06-12 09:00:00,
2013-06-12 02:02:00,39.9,30.2,-100.00,WSW,242,0.0,0.0,68,0.00,,,0.00,VWS V14.01,2013-06-12 09:02:00,
2013-06-12 02:07:00,39.7,30.1,-100.00,WSW,242,0.0,0.0,68,0.00,,,0.00,VWS V14.01,2013-06-12 09:07:00,
2013-06-12 02:12:00,39.7,29.7,-100.00,WSW,242,0.0,0.0,67,0.00,,,0.00,VWS V14.01,2013-06-12 09:12:00,
2013-06-12 02:17:00,39.4,29.7,-100.00,WSW,242,0.0,0.0,68,0.00,,,0.00,VWS V14.01,2013-06-12 09:17:00,
2013-06-12 02:22:00,39.4,30.1,-100.00,WSW,242,0.0,0.0,69,0.00,,,0.00,VWS V14.01,2013-06-12 09:22:00,
2013-06-12 02:27:00,39.4,30.1,-100.00,WSW,242,0.0,0.0,69,0.00,,,0.00,VWS V14.01,2013-06-12 09:27:00,
2013-06-12 02:32:00,39.6,30.6,-100.00,WSW,242,0.0,0.0,70,0.00,,,0.00,VWS V14.01,2013-06-12 09:32:00,
2013-06-12 02:37:00,39.7,30.8,-100.00,WSW,242,0.0,0.0,70,0.00,,,0.00,VWS V14.01,2013-06-12 09:37:00,
2013-06-12 02:42:00,39.6,30.6,-100.00,WSW,242,0.0,0.0,70,0.00,,,0.00,VWS V14.01,2013-06-12 09:42:00,
2013-06-12 02:47:00,39.4,30.8,-100.00,WSW,242,0.0,0.0,71,0.00,,,0.00,VWS V14.01,2013-06-12 09:47:00,
2013-06-12 02:52:00,39.4,32.1,-100.00,WSW,242,0.0,0.0,75,0.00,,,0.00,VWS V14.01,2013-06-12 09:52:00,
2013-06-12 02:57:00,39.4,31.8,-100.00,WSW,242,0.0,0.0,74,0.00,,,0.00,VWS V14.01,2013-06-12 09:57:00,
2013-06-12 03:00:00,39.4,31.8,-100.00,WSW,242,0.0,0.0,74,0.00,,,0.00,VWS V14.01,2013-06-12 10:00:00,
2013-06-12 03:02:00,39.2,31.3,-100.00,WSW,242,0.0,0.0,73,0.00,,,0.00,VWS V14.01,2013-06-12 10:02:00,
2013-06-12 03:07:00,39.0,31.1,-100.00,WSW,242,0.0,0.0,73,0.00,,,0.00,VWS V14.01,2013-06-12 10:07:00,
2013-06-12 03:12:00,38.7,30.8,-100.00,WSW,242,0.0,0.0,73,0.00,,,0.00,VWS V14.01,2013-06-12 10:12:00,
2013-06-12 03:17:00,38.5,30.6,-100.00,WSW,242,0.0,0.0,73,0.00,,,0.00,VWS V14.01,2013-06-12 10:17:00,
2013-06-12 03:22:00,38.5,30.9,-100.00,WSW,242,0.0,0.0,74,0.00,,,0.00,VWS V14.01,2013-06-12 10:22:00,
2013-06-12 03:27:00,38.5,30.6,-100.00,WSW,242,0.0,0.0,73,0.00,,,0.00,VWS V14.01,2013-06-12 10:27:00,
2013-06-12 10:21:00,59.4,32.4,-100.00,SW,227,3.6,3.6,36,0.00,,,0.00,VWS V14.01,2013-06-12 17:21:00,
2013-06-12 10:26:00,60.4,32.7,-100.00,South,172,4.0,4.0,35,0.00,,,0.00,VWS V14.01,2013-06-12 17:26:00,
2013-06-12 10:31:00,59.7,31.3,-100.00,ENE,75,4.9,6.3,34,0.00,,,0.00,VWS V14.01,2013-06-12 17:31:00,
2013-06-12 10:36:00,58.5,30.9,-100.00,NNW,332,0.0,6.3,35,0.00,,,0.00,VWS V14.01,2013-06-12 17:36:00,
2013-06-12 10:41:00,58.5,30.9,-100.00,NNW,348,3.6,6.3,35,0.00,,,0.00,VWS V14.01,2013-06-12 17:41:00,
2013-06-12 10:46:00,58.5,30.9,-100.00,NNW,329,3.1,6.3,35,0.00,,,0.00,VWS V14.01,2013-06-12 17:46:00,
2013-06-12 10:51:00,59.2,31.6,-100.00,North,0,3.1,6.3,35,0.00,,,0.00,VWS V14.01,2013-06-12 17:51:00,
2013-06-12 10:56:00,59.7,32.0,-100.00,West,260,0.0,6.3,35,0.00,,,0.00,VWS V14.01,2013-06-12 17:56:00,
2013-06-12 11:01:00,60.4,32.0,-100.00,WSW,239,3.1,3.1,34,0.00,,,0.00,VWS V14.01,2013-06-12 18:01:00,
2013-06-12 11:06:00,60.8,32.3,-100.00,WSW,246,2.2,3.6,34,0.00,,,0.00,VWS V14.01,2013-06-12 18:06:00,
2013-06-12 11:11:00,60.6,32.1,-100.00,North,0,2.7,4.0,34,0.00,,,0.00,VWS V14.01,2013-06-12 18:11:00,
2013-06-12 11:16:00,58.8,31.2,-100.00,NNW,328,2.7,8.1,35,0.00,,,0.00,VWS V14.01,2013-06-12 18:16:00,
2013-06-12 11:21:00,58.8,31.2,-100.00,NW,320,3.1,8.1,35,0.00,,,0.00,VWS V14.01,2013-06-12 18:21:00,
2013-06-12 11:22:00,58.8,31.2,-100.00,NE,39,2.7,8.1,35,0.00,,,0.00,VWS V14.01,2013-06-12 18:22:00,
2013-06-12 12:39:00,58.8,31.2,-100.00,NE,39,2.7,8.1,35,0.00,,,0.00,VWS V14.01,2013-06-12 19:39:00,
2013-06-12 12:44:00,65.1,32.9,-100.00,NW,304,3.1,8.1,30,0.00,,,0.00,VWS V14.01,2013-06-12 19:44:00,
2013-06-12 12:49:00,64.8,31.8,-100.00,WNW,294,2.7,8.1,29,0.00,,,0.00,VWS V14.01,2013-06-12 19:49:00,
2013-06-12 12:54:00,64.4,31.5,-100.00,NW,326,3.1,8.1,29,0.00,,,0.00,VWS V14.01,2013-06-12 19:54:00,
2013-06-12 12:59:00,64.6,30.8,-100.00,WSW,254,2.2,8.1,28,0.00,,,0.00,VWS V14.01,2013-06-12 19:59:00,
2013-06-12 13:04:00,64.6,31.6,-100.00,ENE,60,0.0,4.0,29,0.00,,,0.00,VWS V14.01,2013-06-12 20:04:00,
2013-06-12 13:09:00,65.1,31.2,-100.00,NW,304,2.7,6.3,28,0.00,,,0.00,VWS V14.01,2013-06-12 20:09:00,
2013-06-12 13:14:00,65.1,31.2,-100.00,WSW,240,0.0,6.3,28,0.00,,,0.00,VWS V14.01,2013-06-12 20:14:00,
2013-06-12 13:19:00,64.9,31.1,-100.00,North,357,3.1,6.3,28,0.00,,,0.00,VWS V14.01,2013-06-12 20:19:00,
2013-06-12 13:24:00,65.1,31.2,-100.00,East,80,0.0,6.3,28,0.00,,,0.00,VWS V14.01,2013-06-12 20:24:00,
2013-06-12 13:29:00,66.2,32.2,-100.00,East,80,2.2,6.3,28,0.00,,,0.00,VWS V14.01,2013-06-12 20:29:00,
2013-06-12 13:34:00,66.0,32.0,-100.00,ESE,108,2.2,6.3,28,0.00,,,0.00,VWS V14.01,2013-06-12 20:34:00,
2013-06-12 13:39:00,64.9,31.1,-100.00,NE,52,0.0,6.3,28,0.00,,,0.00,VWS V14.01,2013-06-12 20:39:00,
2013-06-12 13:44:00,63.9,31.0,-100.00,East,101,0.0,6.3,29,0.00,,,0.00,VWS V14.01,2013-06-12 20:44:00,
2013-06-12 13:49:00,63.3,29.7,-100.00,WNW,299,5.8,7.6,28,0.00,,,0.00,VWS V14.01,2013-06-12 20:49:00,
2013-06-12 13:54:00,64.4,30.6,-100.00,WNW,295,4.0,8.3,28,0.00,,,0.00,VWS V14.01,2013-06-12 20:54:00,
2013-06-12 13:59:00,65.8,31.9,-100.00,East,81,0.0,8.3,28,0.00,,,0.00,VWS V14.01,2013-06-12 20:59:00,
2013-06-12 14:04:00,66.6,32.5,-100.00,South,176,3.1,6.3,28,0.00,,,0.00,VWS V14.01,2013-06-12 21:04:00,
2013-06-12 14:09:00,67.5,32.3,-100.00,NNW,341,3.6,6.3,27,0.00,,,0.00,VWS V14.01,2013-06-12 21:09:00,
2013-06-12 14:14:00,67.5,32.3,-100.00,East,89,3.6,6.3,27,0.00,,,0.00,VWS V14.01,2013-06-12 21:14:00,
2013-06-12 14:19:00,67.3,31.2,-100.00,North,6,3.1,8.7,26,0.00,,,0.00,VWS V14.01,2013-06-12 21:19:00,
2013-06-12 14:24:00,66.2,31.3,-100.00,NNW,329,3.6,8.7,27,0.00,,,0.00,VWS V14.01,2013-06-12 21:24:00,
2013-06-12 14:29:00,64.9,30.2,-100.00,North,0,2.2,8.7,27,0.00,,,0.00,VWS V14.01,2013-06-12 21:29:00,
2013-06-12 14:34:00,65.1,30.3,-100.00,NNE,32,0.0,8.7,27,0.00,,,0.00,VWS V14.01,2013-06-12 21:34:00,
2013-06-12 14:39:00,65.3,30.5,-100.00,North,0,3.1,8.7,27,0.00,,,0.00,VWS V14.01,2013-06-12 21:39:00,
2013-06-12 14:44:00,65.3,30.5,-100.00,North,0,4.0,8.7,27,0.00,,,0.00,VWS V14.01,2013-06-12 21:44:00,
2013-06-12 14:49:00,65.1,30.3,-100.00,NE,47,0.0,8.7,27,0.00,,,0.00,VWS V14.01,2013-06-12 21:49:00,
2013-06-12 14:54:00,66.0,31.1,-100.00,NW,323,2.7,8.7,27,0.00,,,0.00,VWS V14.01,2013-06-12 21:54:00,
2013-06-12 14:59:00,65.8,31.0,-100.00,ENE,75,4.0,8.7,27,0.00,,,0.00,VWS V14.01,2013-06-12 21:59:00,
2013-06-12 15:04:00,65.7,30.8,-100.00,ENE,59,0.0,3.6,27,0.00,,,0.00,VWS V14.01,2013-06-12 22:04:00,
2013-06-12 15:09:00,65.1,30.3,-100.00,ESE,110,3.6,5.4,27,0.00,,,0.00,VWS V14.01,2013-06-12 22:09:00,
2013-06-12 15:14:00,64.8,30.0,-100.00,North,357,0.0,6.3,27,0.00,,,0.00,VWS V14.01,2013-06-12 22:14:00,
2013-06-12 15:19:00,64.6,29.9,-100.00,ESE,119,2.7,6.3,27,0.00,,,0.00,VWS V14.01,2013-06-12 22:19:00,
2013-06-12 15:24:00,64.9,30.2,-100.00,East,79,0.0,6.3,27,0.00,,,0.00,VWS V14.01,2013-06-12 22:24:00,
2013-06-12 15:29:00,65.3,30.5,-100.00,NNE,25,0.0,6.3,27,0.00,,,0.00,VWS V14.01,2013-06-12 22:29:00,
2013-06-12 15:34:00,64.8,30.0,-100.00,NW,312,2.2,6.3,27,0.00,,,0.00,VWS V14.01,2013-06-12 22:34:00,
2013-06-12 15:39:00,64.8,30.0,-100.00,ENE,63,6.3,8.7,27,0.00,,,0.00,VWS V14.01,2013-06-12 22:39:00,
2013-06-12 15:55:00,65.1,30.3,-100.00,ENE,63,3.1,8.7,27,0.00,,,0.00,VWS V14.01,2013-06-12 22:55:00,
2013-06-12 16:00:00,63.5,29.8,-100.00,SSE,163,2.7,8.7,28,0.00,,,0.00,VWS V14.01,2013-06-12 23:00:00,
2013-06-12 16:05:00,63.1,29.5,-100.00,East,86,0.0,3.6,28,0.00,,,0.00,VWS V14.01,2013-06-12 23:05:00,
2013-06-12 16:10:00,63.1,29.5,-100.00,North,6,5.4,5.4,28,0.00,,,0.00,VWS V14.01,2013-06-12 23:10:00,
2013-06-12 16:15:00,63.0,29.4,-100.00,North,3,0.0,7.6,28,0.00,,,0.00,VWS V14.01,2013-06-12 23:15:00,
2013-06-12 16:20:00,63.0,29.4,-100.00,ENE,71,3.1,7.6,28,0.00,,,0.00,VWS V14.01,2013-06-12 23:20:00,
2013-06-12 16:25:00,63.1,30.4,-100.00,SE,136,0.0,8.1,29,0.00,,,0.00,VWS V14.01,2013-06-12 23:25:00,
2013-06-12 16:31:00,63.0,30.2,-100.00,North,353,2.2,8.1,29,0.00,,,0.00,VWS V14.01,2013-06-12 23:31:00,
2013-06-12 16:36:00,63.7,30.9,-100.00,WNW,287,0.0,8.1,29,0.00,,,0.00,VWS V14.01,2013-06-12 23:36:00,
2013-06-12 16:41:00,63.9,30.1,-100.00,East,101,4.9,8.1,28,0.00,,,0.00,VWS V14.01,2013-06-12 23:41:00,
2013-06-12 16:46:00,63.0,30.2,-100.00,North,0,0.0,8.1,29,0.00,,,0.00,VWS V14.01,2013-06-12 23:46:00,
2013-06-12 16:51:00,62.4,29.8,-100.00,North,353,2.7,8.1,29,0.00,,,0.00,VWS V14.01,2013-06-12 23:51:00,
2013-06-12 16:56:00,62.6,29.9,-100.00,ENE,65,0.0,8.1,29,0.00,,,0.00,VWS V14.01,2013-06-12 23:56:00,
2013-06-12 17:01:00,62.6,29.9,-100.00,NW,308,3.6,4.0,29,0.00,,,0.00,VWS V14.01,2013-06-13 00:01:00,
2013-06-12 17:06:00,62.4,29.8,-100.00,North,353,2.2,4.9,29,0.00,,,0.00,VWS V14.01,2013-06-13 00:06:00,
2013-06-12 17:11:00,62.1,30.3,-100.00,NNE,13,4.9,4.9,30,0.00,,,0.00,VWS V14.01,2013-06-13 00:11:00,
2013-06-12 17:16:00,61.9,29.3,-100.00,SE,125,0.0,7.2,29,0.00,,,0.00,VWS V14.01,2013-06-13 00:16:00,
2013-06-12 17:21:00,61.5,29.0,-100.00,East,99,0.0,7.2,29,0.00,,,0.00,VWS V14.01,2013-06-13 00:21:00,
2013-06-12 17:26:00,61.5,29.0,-100.00,North,0,0.0,7.2,29,0.00,,,0.00,VWS V14.01,2013-06-13 00:26:00,
2013-06-12 17:31:00,61.7,29.1,-100.00,NNW,342,0.0,7.2,29,0.00,,,0.00,VWS V14.01,2013-06-13 00:31:00,
2013-06-12 17:36:00,61.9,30.1,-100.00,NNE,17,0.0,7.2,30,0.00,,,0.00,VWS V14.01,2013-06-13 00:36:00,
2013-06-12 17:41:00,61.9,29.3,-100.00,NNE,21,3.6,7.2,29,0.00,,,0.00,VWS V14.01,2013-06-13 00:41:00,
2013-06-12 17:46:00,61.7,30.0,-100.00,NNW,345,0.0,7.2,30,0.00,,,0.00,VWS V14.01,2013-06-13 00:46:00,
2013-06-12 17:51:00,61.5,29.8,-100.00,North,357,0.0,7.2,30,0.00,,,0.00,VWS V14.01,2013-06-13 00:51:00,
2013-06-12 17:56:00,61.7,30.0,-100.00,North,5,3.6,7.2,30,0.00,,,0.00,VWS V14.01,2013-06-13 00:56:00,
2013-06-12 18:01:00,61.5,29.8,-100.00,North,353,0.0,4.0,30,0.00,,,0.00,VWS V14.01,2013-06-13 01:01:00,
2013-06-12 18:06:00,62.1,30.3,-100.00,North,353,0.0,6.3,30,0.00,,,0.00,VWS V14.01,2013-06-13 01:06:00,
2013-06-12 18:11:00,62.8,30.1,-100.00,North,353,0.0,8.1,29,0.00,,,0.00,VWS V14.01,2013-06-13 01:11:00,
2013-06-12 18:16:00,63.0,29.4,-100.00,WSW,254,3.6,8.1,28,0.00,,,0.00,VWS V14.01,2013-06-13 01:16:00,
2013-06-12 22:09:00,63.1,29.5,-100.00,WNW,288,2.7,8.1,28,0.00,,,0.00,VWS V14.01,2013-06-13 05:09:00,
2013-06-12 22:14:00,48.4,29.6,-100.00,SW,228,0.0,8.1,48,0.00,,,0.00,VWS V14.01,2013-06-13 05:14:00,
2013-06-12 22:19:00,48.6,29.8,-100.00,West,271,0.0,8.1,48,0.00,,,0.00,VWS V14.01,2013-06-13 05:19:00,
2013-06-12 22:24:00,48.6,29.8,-100.00,West,271,0.0,8.1,48,0.00,,,0.00,VWS V14.01,2013-06-13 05:24:00,
2013-06-12 22:29:00,48.7,29.9,-100.00,West,281,0.0,8.1,48,0.00,,,0.00,VWS V14.01,2013-06-13 05:29:00,
2013-06-12 22:34:00,48.6,29.8,-100.00,West,281,0.0,8.1,48,0.00,,,0.00,VWS V14.01,2013-06-13 05:34:00,
2013-06-12 22:39:00,48.2,29.5,-100.00,West,272,3.1,8.1,48,0.00,,,0.00,VWS V14.01,2013-06-13 05:39:00,
2013-06-12 22:44:00,48.0,29.8,-100.00,WNW,290,0.0,8.1,49,0.00,,,0.00,VWS V14.01,2013-06-13 05:44:00,
2013-06-12 22:49:00,48.0,29.8,-100.00,WNW,286,3.6,8.1,49,0.00,,,0.00,VWS V14.01,2013-06-13 05:49:00,
2013-06-12 22:54:00,47.8,29.6,-100.00,WSW,258,0.0,8.1,49,0.00,,,0.00,VWS V14.01,2013-06-13 05:54:00,
2013-06-12 22:59:00,47.8,29.6,-100.00,NW,305,2.2,8.1,49,0.00,,,0.00,VWS V14.01,2013-06-13 05:59:00,
2013-06-12 23:04:00,47.7,30.0,-100.00,WNW,297,3.1,5.4,50,0.00,,,0.00,VWS V14.01,2013-06-13 06:04:00,
2013-06-12 23:09:00,47.8,30.1,-100.00,West,274,0.0,5.4,50,0.00,,,0.00,VWS V14.01,2013-06-13 06:09:00,
2013-06-12 23:14:00,47.8,30.6,-100.00,NW,317,2.7,5.4,51,0.00,,,0.00,VWS V14.01,2013-06-13 06:14:00,